createdAt,value
2022-11-06T00:01:22.576Z,1.30
2022-11-06T00:04:08.459Z,0.90
2022-11-06T00:06:53.941Z,1.00
2022-11-06T00:09:39.677Z,1.00
2022-11-06T00:12:25.116Z,1.20
2022-11-06T00:15:11.511Z,1.00
2022-11-06T00:17:57.649Z,1.25
2022-11-06T00:20:43.388Z,1.00
2022-11-06T00:23:29.283Z,1.20
2022-11-06T00:26:17.911Z,1.10
2022-11-06T00:29:04.741Z,1.00
2022-11-06T00:31:50.713Z,1.00
2022-11-06T00:34:36.608Z,1.00
2022-11-06T00:37:22.451Z,1.00
2022-11-06T00:40:08.861Z,1.25
2022-11-06T00:42:55.816Z,1.02
2022-11-06T00:45:41.493Z,1.00
2022-11-06T00:48:27.915Z,1.00
2022-11-06T00:51:16.972Z,0.93
2022-11-06T00:54:04.613Z,0.70
2022-11-06T00:56:50.301Z,1.00
2022-11-06T00:59:36.207Z,1.00
2022-11-06T01:02:21.819Z,0.80
2022-11-06T01:05:07.728Z,0.90
2022-11-06T01:07:53.427Z,1.08
2022-11-06T01:10:39.168Z,0.90
2022-11-06T01:13:24.780Z,1.25
2022-11-06T01:16:13.567Z,0.85
2022-11-06T01:18:59.931Z,1.10
2022-11-06T01:21:48.708Z,1.00
2022-11-06T01:24:35.022Z,1.27
2022-11-06T01:27:26.268Z,1.13
2022-11-06T01:30:13.025Z,1.30
2022-11-06T01:32:58.748Z,1.02
2022-11-06T01:35:46.431Z,0.98
2022-11-06T01:38:31.958Z,1.15
2022-11-06T01:41:24.128Z,0.90
2022-11-06T01:44:40.982Z,0.90
2022-11-06T01:47:28.974Z,1.00
2022-11-06T01:50:16.668Z,1.25
2022-11-06T01:53:02.935Z,1.15
2022-11-06T01:55:53.948Z,1.40
2022-11-06T01:58:43.640Z,1.38
2022-11-06T02:01:31.489Z,1.33
2022-11-06T02:04:27.333Z,1.40
2022-11-06T02:07:13.066Z,1.40
2022-11-06T02:09:58.780Z,1.33
2022-11-06T02:13:22.551Z,1.60
2022-11-06T02:16:16.259Z,1.50
2022-11-06T02:22:10.697Z,1.55
2022-11-06T02:24:59.658Z,1.90
2022-11-06T02:27:52.074Z,1.45
2022-11-06T02:30:44.962Z,1.50
2022-11-06T02:33:35.168Z,1.57
2022-11-06T02:36:28.067Z,1.42
2022-11-06T02:39:18.237Z,1.27
2022-11-06T02:42:07.742Z,1.52
2022-11-06T02:44:57.400Z,1.45
2022-11-06T02:47:46.391Z,1.50
2022-11-06T02:50:35.707Z,1.10
2022-11-06T02:53:25.904Z,1.40
2022-11-06T02:56:18.353Z,1.48
2022-11-06T02:59:11.296Z,1.40
2022-11-06T03:02:03.682Z,1.63
2022-11-06T03:05:17.055Z,1.58
2022-11-06T03:08:07.834Z,1.80
2022-11-06T03:11:05.704Z,1.15
2022-11-06T03:14:13.268Z,1.48
2022-11-06T03:17:16.373Z,1.15
2022-11-06T03:20:01.979Z,1.30
2022-11-06T03:23:06.530Z,1.10
2022-11-06T03:26:04.324Z,1.40
2022-11-06T03:28:57.395Z,1.15
2022-11-06T03:32:04.853Z,1.30
2022-11-06T03:35:01.636Z,1.60
2022-11-06T03:37:51.629Z,1.63
2022-11-06T03:40:43.857Z,1.42
2022-11-06T03:43:35.849Z,1.23
2022-11-06T03:46:25.297Z,1.25
2022-11-06T03:49:16.575Z,1.20
2022-11-06T03:52:15.561Z,0.90
2022-11-06T03:55:17.503Z,0.90
2022-11-06T03:58:23.298Z,0.80
2022-11-06T04:01:13.584Z,0.80
2022-11-06T04:04:09.091Z,0.90
2022-11-06T04:07:02.988Z,0.80
2022-11-06T04:10:15.758Z,0.82
2022-11-06T04:13:20.051Z,0.73
2022-11-06T04:16:07.829Z,0.88
2022-11-06T04:18:53.685Z,0.88
2022-11-06T04:22:06.714Z,0.70
2022-11-06T04:25:50.591Z,0.77
2022-11-06T04:28:46.690Z,0.90
2022-11-06T04:31:32.207Z,0.85
2022-11-06T04:34:27.828Z,0.80
2022-11-06T04:37:20.404Z,0.65
2022-11-06T04:40:26.159Z,0.90
2022-11-06T04:43:35.352Z,0.90
2022-11-06T04:46:27.509Z,1.10
2022-11-06T04:49:14.216Z,0.93
2022-11-06T04:52:07.872Z,0.90
2022-11-06T04:54:55.189Z,0.98
2022-11-06T04:57:40.735Z,1.13
2022-11-06T05:00:26.334Z,1.00
2022-11-06T05:03:12.409Z,1.13
2022-11-06T05:05:58.315Z,0.80
2022-11-06T05:08:44.140Z,0.90
2022-11-06T05:11:29.884Z,2.00
2022-11-06T05:14:15.412Z,0.93
2022-11-06T05:17:00.998Z,0.90
2022-11-06T05:19:46.552Z,1.20
2022-11-06T05:22:50.640Z,1.10
2022-11-06T05:25:40.185Z,1.40
2022-11-06T05:28:26.009Z,1.50
2022-11-06T05:31:11.899Z,1.35
2022-11-06T05:33:57.259Z,1.33
2022-11-06T05:36:42.972Z,1.20
2022-11-06T05:39:28.828Z,1.50
2022-11-06T05:42:14.122Z,1.40
2022-11-06T05:44:59.796Z,1.25
2022-11-06T05:47:45.352Z,1.50
2022-11-06T05:50:31.160Z,1.20
2022-11-06T05:53:22.268Z,1.30
2022-11-06T05:56:08.303Z,1.15
2022-11-06T05:58:54.099Z,1.40
2022-11-06T06:04:05.076Z,1.27
2022-11-06T06:06:50.621Z,1.10
2022-11-06T06:09:36.509Z,0.95
2022-11-06T06:12:23.815Z,1.20
2022-11-06T06:15:09.834Z,1.23
2022-11-06T06:17:57.229Z,1.52
2022-11-06T06:20:43.078Z,1.40
2022-11-06T06:23:28.635Z,2.08
2022-11-06T06:26:14.251Z,1.55
2022-11-06T06:28:59.781Z,1.25
2022-11-06T06:31:45.530Z,1.65
2022-11-06T06:34:31.008Z,1.23
2022-11-06T06:37:20.204Z,1.60
2022-11-06T06:40:06.777Z,1.63
2022-11-06T06:42:57.283Z,1.60
2022-11-06T06:45:42.647Z,1.38
2022-11-06T06:48:28.994Z,1.30
2022-11-06T06:51:18.446Z,1.27
2022-11-06T06:54:06.980Z,1.17
2022-11-06T06:56:52.465Z,1.63
2022-11-06T06:59:37.965Z,1.35
2022-11-06T07:02:23.481Z,1.50
2022-11-06T07:05:09.518Z,1.40
2022-11-06T07:07:55.031Z,1.48
2022-11-06T07:10:40.637Z,1.33
2022-11-06T07:13:27.613Z,1.10
2022-11-06T07:16:16.140Z,1.08
2022-11-06T07:19:02.244Z,1.20
2022-11-06T07:21:51.721Z,1.17
2022-11-06T07:24:37.581Z,1.20
2022-11-06T07:27:23.051Z,1.33
2022-11-06T07:30:09.187Z,1.25
2022-11-06T07:32:56.103Z,1.20
2022-11-06T07:35:41.987Z,1.65
2022-11-06T07:38:27.749Z,1.50
2022-11-06T07:41:14.751Z,1.73
2022-11-06T07:44:00.491Z,1.70
2022-11-06T07:46:46.144Z,1.70
2022-11-06T07:49:31.876Z,1.77
2022-11-06T07:52:17.516Z,1.65
2022-11-06T07:55:03.211Z,1.83
2022-11-06T07:57:49.637Z,1.88
2022-11-06T08:00:35.187Z,1.70
2022-11-06T08:03:21.480Z,1.83
2022-11-06T08:06:07.465Z,1.80
2022-11-06T08:08:58.620Z,1.80
2022-11-06T08:11:44.745Z,2.08
2022-11-06T08:14:30.370Z,1.80
2022-11-06T08:17:15.742Z,1.52
2022-11-06T08:20:01.280Z,1.65
2022-11-06T08:22:46.552Z,1.80
2022-11-06T08:25:33.824Z,2.05
2022-11-06T08:28:19.485Z,1.98
2022-11-06T08:31:09.083Z,1.95
2022-11-06T08:33:54.665Z,2.22
2022-11-06T08:36:49.364Z,2.10
2022-11-06T08:39:35.581Z,1.70
2022-11-06T08:42:20.886Z,1.50
2022-11-06T08:45:07.016Z,4.30
2022-11-06T08:47:53.037Z,1.90
2022-11-06T08:50:39.810Z,7.38
2022-11-06T08:53:25.738Z,2.65
2022-11-06T08:56:11.340Z,2.10
2022-11-06T08:58:57.104Z,2.22
2022-11-06T09:01:42.764Z,2.10
2022-11-06T09:04:28.597Z,2.58
2022-11-06T09:07:14.063Z,2.58
2022-11-06T09:09:59.833Z,2.00
2022-11-06T09:12:45.395Z,2.22
2022-11-06T09:15:30.651Z,2.45
2022-11-06T09:22:26.334Z,3.42
2022-11-06T09:25:12.232Z,3.20
2022-11-06T09:27:59.909Z,3.00
2022-11-06T09:30:45.665Z,3.38
2022-11-06T09:33:31.583Z,3.13
2022-11-06T09:36:17.331Z,3.35
2022-11-06T09:39:02.786Z,3.00
2022-11-06T09:42:05.145Z,3.30
2022-11-06T09:45:12.983Z,3.40
2022-11-06T09:48:36.270Z,3.50
2022-11-06T09:51:30.838Z,3.22
2022-11-06T09:54:38.220Z,3.33
2022-11-06T09:57:50.022Z,3.58
2022-11-06T10:00:35.757Z,3.42
2022-11-06T10:03:33.348Z,2.80
2022-11-06T10:06:22.160Z,3.70
2022-11-06T10:09:07.964Z,3.22
2022-11-06T10:12:16.792Z,2.85
2022-11-06T10:15:02.491Z,3.40
2022-11-06T10:18:16.572Z,3.45
2022-11-06T10:21:12.025Z,3.53
2022-11-06T10:24:03.177Z,3.25
2022-11-06T10:26:58.589Z,3.53
2022-11-06T10:29:56.120Z,3.20
2022-11-06T10:33:02.652Z,3.78
2022-11-06T10:36:06.137Z,3.40
2022-11-06T10:41:39.959Z,3.45
2022-11-06T10:44:51.762Z,3.45
2022-11-06T10:47:43.391Z,3.90
2022-11-06T10:50:42.068Z,3.38
2022-11-06T10:53:42.093Z,3.67
2022-11-06T10:57:05.323Z,4.75
2022-11-06T10:59:51.485Z,6.13
2022-11-06T11:02:41.057Z,5.00
2022-11-06T11:05:34.329Z,3.90
2022-11-06T11:08:31.935Z,6.13
2022-11-06T11:11:26.524Z,5.20
2022-11-06T11:14:14.888Z,4.82
2022-11-06T11:17:01.864Z,5.45
2022-11-06T11:19:47.770Z,6.35
2022-11-06T11:22:33.615Z,5.88
2022-11-06T11:25:26.142Z,6.05
2022-11-06T11:28:34.017Z,5.50
2022-11-06T11:31:20.047Z,5.75
2022-11-06T11:34:15.312Z,5.90
2022-11-06T11:37:03.384Z,6.00
2022-11-06T11:39:49.071Z,6.28
2022-11-06T11:42:34.900Z,6.38
2022-11-06T11:45:21.822Z,5.97
2022-11-06T11:48:14.669Z,7.07
2022-11-06T11:51:17.365Z,7.80
2022-11-06T11:54:05.081Z,6.60
2022-11-06T11:57:05.741Z,7.38
2022-11-06T12:00:02.872Z,7.45
2022-11-06T12:02:55.153Z,7.82
2022-11-06T12:05:41.508Z,8.27
2022-11-06T12:08:27.217Z,8.15
2022-11-06T12:11:20.003Z,9.15
2022-11-06T12:14:32.303Z,8.18
2022-11-06T12:17:23.841Z,7.90
2022-11-06T12:20:17.581Z,8.57
2022-11-06T12:23:03.892Z,9.13
2022-11-06T12:26:37.235Z,8.90
2022-11-06T12:29:36.321Z,9.48
2022-11-06T12:32:41.405Z,10.43
2022-11-06T12:35:32.619Z,9.63
2022-11-06T12:38:35.600Z,10.45
2022-11-06T12:41:27.193Z,12.18
2022-11-06T12:44:14.552Z,11.32
2022-11-06T12:47:03.180Z,10.30
2022-11-06T12:50:12.200Z,10.95
2022-11-06T12:53:22.573Z,10.38
2022-11-06T12:56:38.898Z,10.25
2022-11-06T12:59:50.038Z,9.98
2022-11-06T13:02:56.605Z,10.68
2022-11-06T13:06:00.376Z,9.85
2022-11-06T13:08:48.851Z,10.75
2022-11-06T13:11:55.520Z,10.60
2022-11-06T13:15:01.373Z,11.95
2022-11-06T13:18:16.560Z,9.63
2022-11-06T13:21:10.360Z,11.38
2022-11-06T13:24:02.145Z,10.93
2022-11-06T13:26:54.520Z,13.68
2022-11-06T13:29:40.647Z,12.00
2022-11-06T13:32:29.902Z,11.10
2022-11-06T13:35:19.346Z,12.20
2022-11-06T13:38:08.576Z,12.05
2022-11-06T13:41:03.530Z,11.52
2022-11-06T13:43:53.127Z,11.35
2022-11-06T13:46:57.126Z,12.40
2022-11-06T13:50:15.963Z,11.95
2022-11-06T13:53:33.797Z,12.88
2022-11-06T13:56:57.575Z,11.93
2022-11-06T13:59:46.017Z,13.90
2022-11-06T14:03:03.736Z,14.02
2022-11-06T14:06:00.799Z,13.50
2022-11-06T14:08:48.733Z,12.70
2022-11-06T14:11:37.986Z,12.10
2022-11-06T14:14:26.313Z,11.73
2022-11-06T14:17:18.159Z,13.80
2022-11-06T14:20:26.158Z,13.23
2022-11-06T14:23:43.987Z,12.05
2022-11-06T14:26:39.436Z,12.20
2022-11-06T14:29:27.932Z,14.88
2022-11-06T14:32:19.705Z,12.80
2022-11-06T14:35:37.883Z,13.27
2022-11-06T14:38:29.546Z,13.23
2022-11-06T14:41:34.629Z,13.73
2022-11-06T14:44:26.293Z,13.88
2022-11-06T14:47:30.895Z,12.45
2022-11-06T14:50:19.986Z,13.15
2022-11-06T14:53:25.759Z,12.48
2022-11-06T14:56:20.004Z,12.35
2022-11-06T14:59:20.439Z,13.05
2022-11-06T15:02:20.835Z,13.02
2022-11-06T15:05:14.201Z,13.75
2022-11-06T15:08:07.052Z,12.95
2022-11-06T15:10:54.019Z,14.13
2022-11-06T15:13:40.008Z,14.00
2022-11-06T15:16:40.466Z,13.55
2022-11-06T15:19:39.472Z,14.57
2022-11-06T15:22:40.119Z,12.35
2022-11-06T15:25:28.189Z,12.95
2022-11-06T15:28:22.229Z,14.38
2022-11-06T15:31:14.540Z,14.18
2022-11-06T15:34:07.229Z,13.77
2022-11-06T15:37:02.420Z,14.93
2022-11-06T15:39:48.760Z,14.40
2022-11-06T15:42:36.046Z,13.80
2022-11-06T15:45:24.954Z,13.48
2022-11-06T15:48:23.512Z,14.13
2022-11-06T15:51:29.099Z,14.45
2022-11-06T15:54:36.044Z,14.18
2022-11-06T15:57:28.348Z,15.10
2022-11-06T16:00:19.096Z,14.68
2022-11-06T16:03:14.767Z,15.38
2022-11-06T16:06:05.600Z,15.55
2022-11-06T16:08:51.718Z,15.90
2022-11-06T16:11:37.675Z,15.70
2022-11-06T16:14:23.443Z,15.45
2022-11-06T16:17:17.105Z,15.77
2022-11-06T16:20:04.300Z,17.38
2022-11-06T16:22:50.191Z,17.40
2022-11-06T16:25:35.788Z,18.40
2022-11-06T16:28:23.042Z,18.60
2022-11-06T16:31:15.861Z,18.52
2022-11-06T16:34:04.101Z,22.27
2022-11-06T16:36:59.367Z,22.13
2022-11-06T16:39:49.852Z,21.88
2022-11-06T16:42:36.632Z,20.90
2022-11-06T16:45:23.088Z,18.40
2022-11-06T16:48:08.895Z,18.08
2022-11-06T16:50:57.238Z,17.38
2022-11-06T16:53:55.577Z,17.17
2022-11-06T16:56:41.063Z,16.60
2022-11-06T16:59:26.701Z,17.60
2022-11-06T17:02:25.395Z,16.80
2022-11-06T17:05:33.744Z,16.10
2022-11-06T17:08:34.922Z,16.77
2022-11-06T17:11:23.357Z,17.27
2022-11-06T17:14:17.865Z,18.10
2022-11-06T17:17:03.716Z,18.33
2022-11-06T17:19:49.408Z,19.35
2022-11-06T17:22:35.072Z,20.85
2022-11-06T17:25:20.516Z,22.30
2022-11-06T17:28:06.060Z,22.52
2022-11-06T17:30:51.721Z,25.30
2022-11-06T17:33:37.772Z,26.42
2022-11-06T17:36:27.484Z,28.13
2022-11-06T17:39:13.236Z,26.65
2022-11-06T17:41:59.224Z,28.60
2022-11-06T17:44:44.699Z,29.65
2022-11-06T17:47:30.077Z,31.05
2022-11-06T17:50:16.185Z,30.40
2022-11-06T17:53:01.807Z,30.55
2022-11-06T17:55:47.921Z,29.98
2022-11-06T17:58:34.338Z,33.53
2022-11-06T18:01:20.592Z,30.40
2022-11-06T18:04:07.508Z,27.13
2022-11-06T18:06:54.281Z,26.80
2022-11-06T18:09:40.252Z,26.17
2022-11-06T18:12:27.585Z,24.30
2022-11-06T18:15:13.300Z,24.98
2022-11-06T18:17:59.252Z,24.30
2022-11-06T18:20:46.355Z,23.40
2022-11-06T18:23:32.305Z,22.52
2022-11-06T18:26:21.819Z,22.55
2022-11-06T18:29:08.610Z,22.73
2022-11-06T18:31:54.497Z,21.58
2022-11-06T18:34:40.425Z,21.10
2022-11-06T18:37:26.568Z,21.58
2022-11-06T18:40:12.900Z,21.55
2022-11-06T18:42:58.249Z,22.30
2022-11-06T18:45:44.424Z,24.00
2022-11-06T18:48:32.386Z,25.20
2022-11-06T18:51:34.992Z,27.02
2022-11-06T18:54:21.788Z,25.33
2022-11-06T18:57:07.012Z,26.45
2022-11-06T18:59:52.527Z,25.98
2022-11-06T19:02:38.433Z,26.27
2022-11-06T19:05:24.282Z,25.60
2022-11-06T19:08:10.153Z,26.35
2022-11-06T19:10:55.548Z,23.20
2022-11-06T19:13:47.268Z,23.35
2022-11-06T19:16:34.011Z,21.75
2022-11-06T19:19:25.314Z,21.90
2022-11-06T19:22:11.831Z,20.33
2022-11-06T19:24:57.323Z,20.60
2022-11-06T19:27:42.993Z,18.58
2022-11-06T19:30:28.626Z,18.70
2022-11-06T19:33:14.530Z,17.80
2022-11-06T19:36:01.893Z,18.92
2022-11-06T19:38:47.269Z,17.35
2022-11-06T19:41:33.208Z,18.83
2022-11-06T19:44:19.247Z,20.10
2022-11-06T19:47:04.751Z,19.92
2022-11-06T19:49:50.593Z,24.80
2022-11-06T19:52:43.238Z,26.75
2022-11-06T19:58:18.197Z,20.65
2022-11-06T20:01:10.347Z,22.05
2022-11-06T20:03:56.233Z,22.50
2022-11-06T20:06:42.249Z,23.50
2022-11-06T20:09:28.911Z,22.13
2022-11-06T20:12:17.900Z,21.13
2022-11-06T20:15:03.984Z,21.83
2022-11-06T20:17:49.697Z,21.17
2022-11-06T20:20:36.572Z,22.33
2022-11-06T20:23:22.669Z,20.25
2022-11-06T20:26:08.353Z,21.10
2022-11-06T20:28:55.261Z,21.70
2022-11-06T20:31:41.976Z,23.15
2022-11-06T20:34:28.776Z,22.42
2022-11-06T20:37:14.858Z,22.20
2022-11-06T20:40:00.890Z,23.75
2022-11-06T20:42:46.762Z,22.85
2022-11-06T20:45:37.117Z,21.65
2022-11-06T20:48:22.649Z,20.02
2022-11-06T20:51:11.424Z,19.55
2022-11-06T20:53:57.302Z,20.25
2022-11-06T20:56:42.982Z,21.20
2022-11-06T20:59:28.805Z,21.00
2022-11-06T21:02:14.753Z,20.77
2022-11-06T21:05:00.596Z,22.55
2022-11-06T21:07:46.802Z,20.48
2022-11-06T21:10:32.568Z,19.17
2022-11-06T21:13:18.143Z,19.05
2022-11-06T21:16:11.936Z,20.48
2022-11-06T21:21:44.270Z,20.60
2022-11-06T21:24:29.780Z,20.48
2022-11-06T21:27:15.320Z,20.48
2022-11-06T21:30:00.680Z,20.15
2022-11-06T21:32:46.380Z,20.30
2022-11-06T21:35:31.684Z,20.58
2022-11-06T21:38:17.208Z,20.73
2022-11-06T21:41:07.681Z,20.98
2022-11-06T21:43:53.960Z,19.38
2022-11-06T21:46:44.280Z,19.08
2022-11-06T21:49:31.428Z,19.92
2022-11-06T21:52:35.561Z,19.25
2022-11-06T21:55:39.701Z,18.63
2022-11-06T21:58:25.283Z,19.42
2022-11-06T22:01:11.137Z,18.65
2022-11-06T22:03:56.970Z,18.35
2022-11-06T22:06:43.395Z,18.02
2022-11-06T22:09:29.271Z,19.88
2022-11-06T22:12:15.899Z,19.17
2022-11-06T22:15:04.028Z,18.10
2022-11-06T22:17:49.728Z,17.42
2022-11-06T22:20:35.250Z,18.23
2022-11-06T22:23:20.953Z,19.00
2022-11-06T22:26:09.696Z,18.05
2022-11-06T22:28:57.516Z,17.85
2022-11-06T22:31:43.451Z,19.15
2022-11-06T22:34:29.192Z,21.23
2022-11-06T22:37:14.767Z,22.05
2022-11-06T22:40:00.191Z,22.08
2022-11-06T22:42:49.457Z,19.80
2022-11-06T22:45:36.852Z,21.67
2022-11-06T22:48:23.073Z,19.48
2022-11-06T22:51:15.040Z,16.65
2022-11-06T22:54:04.076Z,15.63
2022-11-06T22:56:49.557Z,15.50
2022-11-06T22:59:35.159Z,15.68
2022-11-06T23:02:21.150Z,17.02
2022-11-06T23:05:07.469Z,18.52
2022-11-06T23:07:53.350Z,17.75
2022-11-06T23:10:39.313Z,17.20
2022-11-06T23:13:25.420Z,17.30
2022-11-06T23:16:15.202Z,18.10
2022-11-06T23:19:00.674Z,18.80
2022-11-06T23:21:46.396Z,18.75
2022-11-06T23:24:31.977Z,18.98
2022-11-06T23:27:18.335Z,19.38
2022-11-06T23:30:05.301Z,18.80
2022-11-06T23:32:50.733Z,21.00
2022-11-06T23:35:36.202Z,17.30
2022-11-06T23:38:21.612Z,15.70
2022-11-06T23:41:34.208Z,16.73
2022-11-06T23:44:38.417Z,18.83
2022-11-06T23:47:24.122Z,18.73
2022-11-06T23:50:09.588Z,18.40
2022-11-06T23:52:55.475Z,18.38
2022-11-06T23:55:41.752Z,18.48
2022-11-06T23:58:27.395Z,17.92
